sensor_id;sensor_type;location;lat;lon;timestamp;P1;durP1;ratioP1;P2;durP2;ratioP2
10769;SDS011;5437;50.852;4.438;2023-06-10T00:02:04;5.80;;;5.20;;
10769;SDS011;5437;50.852;4.438;2023-06-10T00:04:32;5.18;;;4.68;;
10769;SDS011;5437;50.852;4.438;2023-06-10T00:07:04;6.18;;;5.05;;
10769;SDS011;5437;50.852;4.438;2023-06-10T00:09:36;6.85;;;4.97;;
10769;SDS011;5437;50.852;4.438;2023-06-10T00:12:05;5.43;;;4.88;;
10769;SDS011;5437;50.852;4.438;2023-06-10T00:14:36;4.95;;;4.55;;
10769;SDS011;5437;50.852;4.438;2023-06-10T00:17:03;6.10;;;4.97;;
10769;SDS011;5437;50.852;4.438;2023-06-10T00:19:29;6.80;;;4.90;;
10769;SDS011;5437;50.852;4.438;2023-06-10T00:22:07;5.55;;;5.05;;
10769;SDS011;5437;50.852;4.438;2023-06-10T00:24:35;5.38;;;4.88;;
10769;SDS011;5437;50.852;4.438;2023-06-10T00:27:07;5.72;;;4.90;;
10769;SDS011;5437;50.852;4.438;2023-06-10T00:29:35;6.53;;;5.90;;
10769;SDS011;5437;50.852;4.438;2023-06-10T00:32:01;5.95;;;5.30;;
10769;SDS011;5437;50.852;4.438;2023-06-10T00:34:28;6.25;;;5.65;;
10769;SDS011;5437;50.852;4.438;2023-06-10T00:37:03;5.07;;;4.57;;
10769;SDS011;5437;50.852;4.438;2023-06-10T00:39:32;5.97;;;5.25;;
10769;SDS011;5437;50.852;4.438;2023-06-10T00:41:58;5.35;;;4.85;;
10769;SDS011;5437;50.852;4.438;2023-06-10T00:44:25;6.03;;;5.20;;
10769;SDS011;5437;50.852;4.438;2023-06-10T00:46:51;4.75;;;4.35;;
10769;SDS011;5437;50.852;4.438;2023-06-10T00:49:20;5.75;;;5.15;;
10769;SDS011;5437;50.852;4.438;2023-06-10T00:51:50;5.57;;;5.07;;
10769;SDS011;5437;50.852;4.438;2023-06-10T00:54:20;5.22;;;4.72;;
10769;SDS011;5437;50.852;4.438;2023-06-10T00:59:26;6.28;;;5.32;;
10769;SDS011;5437;50.852;4.438;2023-06-10T01:01:53;5.85;;;5.30;;
10769;SDS011;5437;50.852;4.438;2023-06-10T01:04:23;5.47;;;4.95;;
10769;SDS011;5437;50.852;4.438;2023-06-10T01:12:11;5.82;;;5.22;;
10769;SDS011;5437;50.852;4.438;2023-06-10T01:14:54;6.30;;;5.70;;
10769;SDS011;5437;50.852;4.438;2023-06-10T01:17:23;5.72;;;5.13;;
10769;SDS011;5437;50.852;4.438;2023-06-10T01:19:55;5.28;;;4.78;;
10769;SDS011;5437;50.852;4.438;2023-06-10T01:22:24;5.25;;;4.82;;
10769;SDS011;5437;50.852;4.438;2023-06-10T01:24:56;5.85;;;5.32;;
10769;SDS011;5437;50.852;4.438;2023-06-10T01:27:29;5.63;;;5.13;;
10769;SDS011;5437;50.852;4.438;2023-06-10T01:29:59;5.20;;;4.72;;
10769;SDS011;5437;50.852;4.438;2023-06-10T01:35:17;5.55;;;5.05;;
10769;SDS011;5437;50.852;4.438;2023-06-10T01:37:53;6.07;;;5.32;;
10769;SDS011;5437;50.852;4.438;2023-06-10T01:40:20;6.03;;;5.05;;
10769;SDS011;5437;50.852;4.438;2023-06-10T01:42:46;5.20;;;4.70;;
10769;SDS011;5437;50.852;4.438;2023-06-10T01:45:12;5.65;;;5.15;;
10769;SDS011;5437;50.852;4.438;2023-06-10T01:47:42;5.18;;;4.68;;
10769;SDS011;5437;50.852;4.438;2023-06-10T01:50:08;5.75;;;5.25;;
10769;SDS011;5437;50.852;4.438;2023-06-10T01:52:34;5.75;;;5.15;;
10769;SDS011;5437;50.852;4.438;2023-06-10T01:55:01;5.68;;;5.18;;
10769;SDS011;5437;50.852;4.438;2023-06-10T01:57:27;5.85;;;5.35;;
10769;SDS011;5437;50.852;4.438;2023-06-10T01:59:54;5.57;;;5.00;;
10769;SDS011;5437;50.852;4.438;2023-06-10T02:02:20;6.30;;;5.35;;
10769;SDS011;5437;50.852;4.438;2023-06-10T02:04:47;6.10;;;5.50;;
10769;SDS011;5437;50.852;4.438;2023-06-10T02:07:13;5.63;;;5.10;;
10769;SDS011;5437;50.852;4.438;2023-06-10T02:09:59;5.97;;;5.47;;
10769;SDS011;5437;50.852;4.438;2023-06-10T02:12:26;5.95;;;5.43;;
10769;SDS011;5437;50.852;4.438;2023-06-10T02:14:52;6.35;;;5.75;;
10769;SDS011;5437;50.852;4.438;2023-06-10T02:17:24;6.03;;;5.43;;
10769;SDS011;5437;50.852;4.438;2023-06-10T02:19:57;6.07;;;5.43;;
10769;SDS011;5437;50.852;4.438;2023-06-10T02:22:25;6.10;;;5.50;;
10769;SDS011;5437;50.852;4.438;2023-06-10T02:24:54;5.95;;;5.35;;
10769;SDS011;5437;50.852;4.438;2023-06-10T02:27:29;5.47;;;5.07;;
10769;SDS011;5437;50.852;4.438;2023-06-10T02:29:59;6.05;;;5.22;;
10769;SDS011;5437;50.852;4.438;2023-06-10T02:32:25;5.90;;;5.40;;
10769;SDS011;5437;50.852;4.438;2023-06-10T02:34:51;6.45;;;5.70;;
10769;SDS011;5437;50.852;4.438;2023-06-10T02:37:18;5.97;;;5.47;;
10769;SDS011;5437;50.852;4.438;2023-06-10T02:39:45;6.05;;;5.32;;
10769;SDS011;5437;50.852;4.438;2023-06-10T02:42:17;6.20;;;5.60;;
10769;SDS011;5437;50.852;4.438;2023-06-10T02:44:47;6.50;;;5.90;;
10769;SDS011;5437;50.852;4.438;2023-06-10T02:47:22;5.93;;;5.30;;
10769;SDS011;5437;50.852;4.438;2023-06-10T02:49:56;6.20;;;5.60;;
10769;SDS011;5437;50.852;4.438;2023-06-10T02:52:25;5.57;;;5.07;;
10769;SDS011;5437;50.852;4.438;2023-06-10T02:54:52;6.60;;;5.90;;
10769;SDS011;5437;50.852;4.438;2023-06-10T02:57:18;6.22;;;5.63;;
10769;SDS011;5437;50.852;4.438;2023-06-10T02:59:47;7.00;;;6.10;;
10769;SDS011;5437;50.852;4.438;2023-06-10T03:02:13;7.85;;;5.65;;
10769;SDS011;5437;50.852;4.438;2023-06-10T03:04:49;5.95;;;5.38;;
10769;SDS011;5437;50.852;4.438;2023-06-10T03:07:16;6.25;;;5.18;;
10769;SDS011;5437;50.852;4.438;2023-06-10T03:09:43;6.13;;;5.53;;
10769;SDS011;5437;50.852;4.438;2023-06-10T03:12:09;6.05;;;5.43;;
10769;SDS011;5437;50.852;4.438;2023-06-10T03:14:35;6.55;;;5.43;;
10769;SDS011;5437;50.852;4.438;2023-06-10T03:17:04;5.97;;;5.47;;
10769;SDS011;5437;50.852;4.438;2023-06-10T03:19:31;6.25;;;5.57;;
10769;SDS011;5437;50.852;4.438;2023-06-10T03:22:08;6.32;;;5.72;;
10769;SDS011;5437;50.852;4.438;2023-06-10T03:24:35;7.93;;;5.45;;
10769;SDS011;5437;50.852;4.438;2023-06-10T03:27:01;6.10;;;5.50;;
10769;SDS011;5437;50.852;4.438;2023-06-10T03:29:32;6.30;;;5.70;;
10769;SDS011;5437;50.852;4.438;2023-06-10T03:31:58;6.60;;;6.00;;
10769;SDS011;5437;50.852;4.438;2023-06-10T03:34:27;7.05;;;5.78;;
10769;SDS011;5437;50.852;4.438;2023-06-10T03:36:54;6.40;;;5.80;;
10769;SDS011;5437;50.852;4.438;2023-06-10T03:39:28;6.15;;;5.60;;
10769;SDS011;5437;50.852;4.438;2023-06-10T03:42:14;6.35;;;5.80;;
10769;SDS011;5437;50.852;4.438;2023-06-10T03:44:40;6.55;;;5.95;;
10769;SDS011;5437;50.852;4.438;2023-06-10T03:47:06;7.22;;;6.47;;
10769;SDS011;5437;50.852;4.438;2023-06-10T03:49:33;6.65;;;5.90;;
10769;SDS011;5437;50.852;4.438;2023-06-10T03:51:59;6.28;;;5.68;;
10769;SDS011;5437;50.852;4.438;2023-06-10T03:54:31;7.55;;;6.40;;
10769;SDS011;5437;50.852;4.438;2023-06-10T03:56:59;6.20;;;5.60;;
10769;SDS011;5437;50.852;4.438;2023-06-10T03:59:25;6.25;;;5.68;;
10769;SDS011;5437;50.852;4.438;2023-06-10T04:01:51;7.10;;;6.38;;
10769;SDS011;5437;50.852;4.438;2023-06-10T04:04:17;6.32;;;5.72;;
10769;SDS011;5437;50.852;4.438;2023-06-10T04:06:44;7.15;;;6.22;;
10769;SDS011;5437;50.852;4.438;2023-06-10T04:09:16;6.75;;;6.03;;
10769;SDS011;5437;50.852;4.438;2023-06-10T04:11:45;6.68;;;5.97;;
10769;SDS011;5437;50.852;4.438;2023-06-10T04:14:11;7.25;;;6.55;;
10769;SDS011;5437;50.852;4.438;2023-06-10T04:16:38;6.50;;;5.78;;
10769;SDS011;5437;50.852;4.438;2023-06-10T04:19:05;6.50;;;5.80;;
10769;SDS011;5437;50.852;4.438;2023-06-10T04:21:32;6.47;;;5.78;;
10769;SDS011;5437;50.852;4.438;2023-06-10T04:23:58;6.50;;;5.90;;
10769;SDS011;5437;50.852;4.438;2023-06-10T04:26:24;7.22;;;5.70;;
10769;SDS011;5437;50.852;4.438;2023-06-10T04:28:50;7.10;;;6.32;;
10769;SDS011;5437;50.852;4.438;2023-06-10T04:31:17;6.57;;;5.97;;
10769;SDS011;5437;50.852;4.438;2023-06-10T04:33:43;7.05;;;6.35;;
10769;SDS011;5437;50.852;4.438;2023-06-10T04:36:09;7.95;;;6.40;;
10769;SDS011;5437;50.852;4.438;2023-06-10T04:38:35;6.95;;;6.30;;
10769;SDS011;5437;50.852;4.438;2023-06-10T04:41:06;7.60;;;6.80;;
10769;SDS011;5437;50.852;4.438;2023-06-10T04:43:38;6.90;;;6.20;;
10769;SDS011;5437;50.852;4.438;2023-06-10T04:46:07;7.00;;;6.25;;
10769;SDS011;5437;50.852;4.438;2023-06-10T04:48:34;7.93;;;6.20;;
10769;SDS011;5437;50.852;4.438;2023-06-10T04:51:21;6.40;;;5.78;;
10769;SDS011;5437;50.852;4.438;2023-06-10T04:53:47;6.75;;;5.72;;
10769;SDS011;5437;50.852;4.438;2023-06-10T04:56:13;6.97;;;6.28;;
10769;SDS011;5437;50.852;4.438;2023-06-10T04:58:40;6.60;;;6.00;;
10769;SDS011;5437;50.852;4.438;2023-06-10T05:01:11;6.97;;;6.20;;
10769;SDS011;5437;50.852;4.438;2023-06-10T05:03:43;7.68;;;6.60;;
10769;SDS011;5437;50.852;4.438;2023-06-10T05:06:15;6.78;;;5.97;;
10769;SDS011;5437;50.852;4.438;2023-06-10T05:08:44;6.80;;;5.90;;
10769;SDS011;5437;50.852;4.438;2023-06-10T05:11:19;7.95;;;7.03;;
10769;SDS011;5437;50.852;4.438;2023-06-10T05:13:45;6.75;;;6.13;;
10769;SDS011;5437;50.852;4.438;2023-06-10T05:16:11;6.93;;;6.22;;
10769;SDS011;5437;50.852;4.438;2023-06-10T05:18:40;6.97;;;6.25;;
10769;SDS011;5437;50.852;4.438;2023-06-10T05:21:06;7.28;;;6.57;;
10769;SDS011;5437;50.852;4.438;2023-06-10T05:26:12;7.25;;;6.28;;
10769;SDS011;5437;50.852;4.438;2023-06-10T05:28:38;6.65;;;5.95;;
10769;SDS011;5437;50.852;4.438;2023-06-10T05:31:04;6.68;;;6.07;;
10769;SDS011;5437;50.852;4.438;2023-06-10T05:33:33;6.32;;;5.72;;
10769;SDS011;5437;50.852;4.438;2023-06-10T05:35:59;6.75;;;6.07;;
10769;SDS011;5437;50.852;4.438;2023-06-10T05:38:31;7.13;;;6.50;;
10769;SDS011;5437;50.852;4.438;2023-06-10T05:40:57;7.28;;;6.45;;
10769;SDS011;5437;50.852;4.438;2023-06-10T05:43:26;6.68;;;6.00;;
10769;SDS011;5437;50.852;4.438;2023-06-10T05:45:52;7.28;;;6.57;;
10769;SDS011;5437;50.852;4.438;2023-06-10T05:48:24;7.47;;;6.55;;
10769;SDS011;5437;50.852;4.438;2023-06-10T05:50:50;6.68;;;6.07;;
10769;SDS011;5437;50.852;4.438;2023-06-10T05:53:16;6.75;;;6.05;;
10769;SDS011;5437;50.852;4.438;2023-06-10T05:55:43;6.55;;;5.85;;
10769;SDS011;5437;50.852;4.438;2023-06-10T05:58:13;7.47;;;6.75;;
10769;SDS011;5437;50.852;4.438;2023-06-10T06:00:39;6.97;;;6.30;;
10769;SDS011;5437;50.852;4.438;2023-06-10T06:03:07;7.05;;;6.35;;
10769;SDS011;5437;50.852;4.438;2023-06-10T06:05:33;6.75;;;5.93;;
10769;SDS011;5437;50.852;4.438;2023-06-10T06:08:05;6.78;;;6.18;;
10769;SDS011;5437;50.852;4.438;2023-06-10T06:10:32;8.75;;;6.50;;
10769;SDS011;5437;50.852;4.438;2023-06-10T06:12:58;6.32;;;5.70;;
10769;SDS011;5437;50.852;4.438;2023-06-10T06:15:25;6.60;;;6.05;;
10769;SDS011;5437;50.852;4.438;2023-06-10T06:17:51;7.00;;;6.28;;
10769;SDS011;5437;50.852;4.438;2023-06-10T06:20:35;6.57;;;5.97;;
10769;SDS011;5437;50.852;4.438;2023-06-10T06:23:01;6.68;;;5.97;;
10769;SDS011;5437;50.852;4.438;2023-06-10T06:25:54;6.85;;;5.97;;
10769;SDS011;5437;50.852;4.438;2023-06-10T06:28:17;7.88;;;5.82;;
10769;SDS011;5437;50.852;4.438;2023-06-10T06:30:47;6.75;;;6.05;;
10769;SDS011;5437;50.852;4.438;2023-06-10T06:33:16;9.10;;;5.70;;
10769;SDS011;5437;50.852;4.438;2023-06-10T06:35:49;6.35;;;5.75;;
10769;SDS011;5437;50.852;4.438;2023-06-10T06:38:15;7.00;;;6.10;;
10769;SDS011;5437;50.852;4.438;2023-06-10T06:40:41;6.22;;;5.63;;
10769;SDS011;5437;50.852;4.438;2023-06-10T06:43:23;6.20;;;5.63;;
10769;SDS011;5437;50.852;4.438;2023-06-10T06:45:55;6.53;;;5.93;;
10769;SDS011;5437;50.852;4.438;2023-06-10T06:48:28;6.63;;;6.03;;
10769;SDS011;5437;50.852;4.438;2023-06-10T06:50:55;6.53;;;5.93;;
10769;SDS011;5437;50.852;4.438;2023-06-10T06:53:22;7.13;;;6.30;;
10769;SDS011;5437;50.852;4.438;2023-06-10T06:55:52;6.47;;;5.88;;
10769;SDS011;5437;50.852;4.438;2023-06-10T06:58:18;6.40;;;5.60;;
10769;SDS011;5437;50.852;4.438;2023-06-10T07:00:50;6.55;;;5.95;;
10769;SDS011;5437;50.852;4.438;2023-06-10T07:03:16;6.85;;;6.00;;
10769;SDS011;5437;50.852;4.438;2023-06-10T07:05:42;6.53;;;5.93;;
10769;SDS011;5437;50.852;4.438;2023-06-10T07:08:14;6.65;;;5.90;;
10769;SDS011;5437;50.852;4.438;2023-06-10T07:10:45;5.93;;;5.32;;
10769;SDS011;5437;50.852;4.438;2023-06-10T07:13:15;6.35;;;5.80;;
10769;SDS011;5437;50.852;4.438;2023-06-10T07:15:51;6.45;;;5.85;;
10769;SDS011;5437;50.852;4.438;2023-06-10T07:21:09;6.40;;;5.80;;
10769;SDS011;5437;50.852;4.438;2023-06-10T07:23:35;6.10;;;5.50;;
10769;SDS011;5437;50.852;4.438;2023-06-10T07:26:17;5.82;;;5.32;;
10769;SDS011;5437;50.852;4.438;2023-06-10T07:28:46;6.00;;;5.38;;
10769;SDS011;5437;50.852;4.438;2023-06-10T07:34:41;5.95;;;5.35;;
10769;SDS011;5437;50.852;4.438;2023-06-10T07:36:43;5.80;;;5.30;;
10769;SDS011;5437;50.852;4.438;2023-06-10T07:39:33;6.35;;;5.53;;
10769;SDS011;5437;50.852;4.438;2023-06-10T07:42:02;5.97;;;5.40;;
10769;SDS011;5437;50.852;4.438;2023-06-10T07:44:39;6.15;;;5.55;;
10769;SDS011;5437;50.852;4.438;2023-06-10T07:47:08;5.63;;;5.03;;
10769;SDS011;5437;50.852;4.438;2023-06-10T07:49:39;6.22;;;5.05;;
10769;SDS011;5437;50.852;4.438;2023-06-10T07:52:10;6.15;;;5.55;;
10769;SDS011;5437;50.852;4.438;2023-06-10T07:54:39;6.50;;;5.57;;
10769;SDS011;5437;50.852;4.438;2023-06-10T07:57:08;5.78;;;5.13;;
10769;SDS011;5437;50.852;4.438;2023-06-10T07:59:42;5.55;;;5.05;;
10769;SDS011;5437;50.852;4.438;2023-06-10T08:02:29;5.38;;;4.88;;
10769;SDS011;5437;50.852;4.438;2023-06-10T08:04:55;5.30;;;4.80;;
10769;SDS011;5437;50.852;4.438;2023-06-10T08:07:22;5.78;;;5.05;;
10769;SDS011;5437;50.852;4.438;2023-06-10T08:09:48;5.57;;;5.13;;
10769;SDS011;5437;50.852;4.438;2023-06-10T08:12:20;5.45;;;4.95;;
10769;SDS011;5437;50.852;4.438;2023-06-10T08:14:46;5.18;;;4.78;;
10769;SDS011;5437;50.852;4.438;2023-06-10T08:17:12;4.90;;;4.50;;
10769;SDS011;5437;50.852;4.438;2023-06-10T08:19:38;5.43;;;4.93;;
10769;SDS011;5437;50.852;4.438;2023-06-10T08:22:11;5.50;;;5.00;;
10769;SDS011;5437;50.852;4.438;2023-06-10T08:24:37;5.00;;;4.60;;
10769;SDS011;5437;50.852;4.438;2023-06-10T08:27:03;4.82;;;4.43;;
10769;SDS011;5437;50.852;4.438;2023-06-10T08:29:31;5.03;;;4.30;;
10769;SDS011;5437;50.852;4.438;2023-06-10T08:31:57;4.93;;;4.43;;
10769;SDS011;5437;50.852;4.438;2023-06-10T08:34:23;4.88;;;4.47;;
10769;SDS011;5437;50.852;4.438;2023-06-10T08:36:52;4.28;;;3.97;;
10769;SDS011;5437;50.852;4.438;2023-06-10T08:39:44;5.05;;;4.55;;
10769;SDS011;5437;50.852;4.438;2023-06-10T08:42:26;4.82;;;4.43;;
10769;SDS011;5437;50.852;4.438;2023-06-10T08:44:54;5.07;;;4.60;;
10769;SDS011;5437;50.852;4.438;2023-06-10T08:47:22;4.47;;;4.07;;
10769;SDS011;5437;50.852;4.438;2023-06-10T08:49:52;4.95;;;4.30;;
10769;SDS011;5437;50.852;4.438;2023-06-10T08:52:21;4.53;;;4.13;;
10769;SDS011;5437;50.852;4.438;2023-06-10T08:54:55;4.90;;;4.50;;
10769;SDS011;5437;50.852;4.438;2023-06-10T08:57:22;4.20;;;3.90;;
10769;SDS011;5437;50.852;4.438;2023-06-10T08:59:48;4.47;;;4.07;;
10769;SDS011;5437;50.852;4.438;2023-06-10T09:02:25;4.18;;;3.85;;
10769;SDS011;5437;50.852;4.438;2023-06-10T09:04:52;4.45;;;4.05;;
10769;SDS011;5437;50.852;4.438;2023-06-10T09:10:05;4.03;;;3.72;;
10769;SDS011;5437;50.852;4.438;2023-06-10T09:12:34;4.15;;;3.75;;
10769;SDS011;5437;50.852;4.438;2023-06-10T09:15:03;4.50;;;4.20;;
10769;SDS011;5437;50.852;4.438;2023-06-10T09:17:45;4.43;;;4.10;;
10769;SDS011;5437;50.852;4.438;2023-06-10T09:20:29;4.53;;;4.13;;
10769;SDS011;5437;50.852;4.438;2023-06-10T09:22:59;4.60;;;4.20;;
10769;SDS011;5437;50.852;4.438;2023-06-10T09:25:46;4.15;;;3.75;;
10769;SDS011;5437;50.852;4.438;2023-06-10T09:31:03;4.35;;;3.95;;
10769;SDS011;5437;50.852;4.438;2023-06-10T09:33:46;3.88;;;3.58;;
10769;SDS011;5437;50.852;4.438;2023-06-10T09:36:23;3.83;;;3.53;;
10769;SDS011;5437;50.852;4.438;2023-06-10T09:39:00;4.20;;;3.80;;
10769;SDS011;5437;50.852;4.438;2023-06-10T09:41:45;3.80;;;3.50;;
10769;SDS011;5437;50.852;4.438;2023-06-10T09:46:53;4.25;;;3.75;;
10769;SDS011;5437;50.852;4.438;2023-06-10T09:49:24;4.57;;;3.78;;
10769;SDS011;5437;50.852;4.438;2023-06-10T09:54:37;3.92;;;3.35;;
10769;SDS011;5437;50.852;4.438;2023-06-10T09:57:12;4.00;;;3.70;;
10769;SDS011;5437;50.852;4.438;2023-06-10T09:59:39;4.22;;;3.72;;
10769;SDS011;5437;50.852;4.438;2023-06-10T10:02:05;4.38;;;3.97;;
10769;SDS011;5437;50.852;4.438;2023-06-10T10:07:48;4.25;;;3.95;;
10769;SDS011;5437;50.852;4.438;2023-06-10T10:16:40;5.22;;;4.32;;
10769;SDS011;5437;50.852;4.438;2023-06-10T10:19:10;4.03;;;3.72;;
10769;SDS011;5437;50.852;4.438;2023-06-10T10:21:38;4.63;;;4.22;;
10769;SDS011;5437;50.852;4.438;2023-06-10T10:26:32;4.30;;;3.95;;
10769;SDS011;5437;50.852;4.438;2023-06-10T10:29:41;4.47;;;4.07;;
10769;SDS011;5437;50.852;4.438;2023-06-10T10:31:49;4.28;;;3.88;;
10769;SDS011;5437;50.852;4.438;2023-06-10T10:34:19;4.50;;;4.10;;
10769;SDS011;5437;50.852;4.438;2023-06-10T10:36:47;4.10;;;3.80;;
10769;SDS011;5437;50.852;4.438;2023-06-10T10:39:14;4.50;;;4.10;;
10769;SDS011;5437;50.852;4.438;2023-06-10T10:41:40;4.50;;;4.10;;
10769;SDS011;5437;50.852;4.438;2023-06-10T10:44:07;4.70;;;4.30;;
10769;SDS011;5437;50.852;4.438;2023-06-10T10:46:52;3.90;;;3.60;;
10769;SDS011;5437;50.852;4.438;2023-06-10T10:49:19;5.18;;;4.10;;
10769;SDS011;5437;50.852;4.438;2023-06-10T10:51:58;4.15;;;3.75;;
10769;SDS011;5437;50.852;4.438;2023-06-10T10:54:28;4.30;;;3.90;;
10769;SDS011;5437;50.852;4.438;2023-06-10T11:02:57;4.30;;;3.90;;
10769;SDS011;5437;50.852;4.438;2023-06-10T11:05:43;3.80;;;3.50;;
10769;SDS011;5437;50.852;4.438;2023-06-10T11:11:17;3.90;;;3.58;;
10769;SDS011;5437;50.852;4.438;2023-06-10T11:13:48;3.95;;;3.65;;
10769;SDS011;5437;50.852;4.438;2023-06-10T11:16:23;3.88;;;3.60;;
10769;SDS011;5437;50.852;4.438;2023-06-10T11:18:57;4.00;;;3.70;;
10769;SDS011;5437;50.852;4.438;2023-06-10T11:21:26;4.07;;;3.78;;
10769;SDS011;5437;50.852;4.438;2023-06-10T11:23:57;4.28;;;3.88;;
10769;SDS011;5437;50.852;4.438;2023-06-10T11:31:23;3.90;;;3.60;;
10769;SDS011;5437;50.852;4.438;2023-06-10T11:33:55;3.88;;;3.58;;
10769;SDS011;5437;50.852;4.438;2023-06-10T11:36:27;4.28;;;3.88;;
10769;SDS011;5437;50.852;4.438;2023-06-10T11:39:15;3.65;;;3.40;;
10769;SDS011;5437;50.852;4.438;2023-06-10T11:41:43;3.97;;;3.67;;
10769;SDS011;5437;50.852;4.438;2023-06-10T11:46:35;4.30;;;3.92;;
10769;SDS011;5437;50.852;4.438;2023-06-10T11:49:01;3.92;;;3.63;;
10769;SDS011;5437;50.852;4.438;2023-06-10T11:51:28;4.13;;;3.72;;
10769;SDS011;5437;50.852;4.438;2023-06-10T11:53:55;4.07;;;3.78;;
10769;SDS011;5437;50.852;4.438;2023-06-10T11:56:21;4.10;;;3.80;;
10769;SDS011;5437;50.852;4.438;2023-06-10T12:01:23;4.35;;;3.95;;
10769;SDS011;5437;50.852;4.438;2023-06-10T12:03:56;4.35;;;3.95;;
10769;SDS011;5437;50.852;4.438;2023-06-10T12:06:22;4.53;;;4.13;;
10769;SDS011;5437;50.852;4.438;2023-06-10T12:08:48;4.38;;;4.05;;
10769;SDS011;5437;50.852;4.438;2023-06-10T12:11:14;4.35;;;4.05;;
10769;SDS011;5437;50.852;4.438;2023-06-10T12:13:47;4.32;;;4.03;;
10769;SDS011;5437;50.852;4.438;2023-06-10T12:16:14;4.45;;;4.13;;
10769;SDS011;5437;50.852;4.438;2023-06-10T12:18:42;4.45;;;4.05;;
10769;SDS011;5437;50.852;4.438;2023-06-10T12:21:19;4.57;;;4.18;;
10769;SDS011;5437;50.852;4.438;2023-06-10T12:26:34;4.68;;;4.28;;
10769;SDS011;5437;50.852;4.438;2023-06-10T12:29:01;5.07;;;4.20;;
10769;SDS011;5437;50.852;4.438;2023-06-10T12:31:27;4.38;;;3.97;;
10769;SDS011;5437;50.852;4.438;2023-06-10T12:34:08;4.35;;;4.00;;
10769;SDS011;5437;50.852;4.438;2023-06-10T12:36:35;4.40;;;4.00;;
10769;SDS011;5437;50.852;4.438;2023-06-10T12:39:04;4.20;;;3.90;;
10769;SDS011;5437;50.852;4.438;2023-06-10T12:41:30;4.30;;;4.00;;
10769;SDS011;5437;50.852;4.438;2023-06-10T12:43:57;4.70;;;4.30;;
10769;SDS011;5437;50.852;4.438;2023-06-10T12:46:23;4.97;;;4.47;;
10769;SDS011;5437;50.852;4.438;2023-06-10T12:48:49;4.68;;;4.28;;
10769;SDS011;5437;50.852;4.438;2023-06-10T12:51:20;4.03;;;3.72;;
10769;SDS011;5437;50.852;4.438;2023-06-10T12:53:46;4.40;;;4.10;;
10769;SDS011;5437;50.852;4.438;2023-06-10T12:56:12;4.63;;;4.10;;
10769;SDS011;5437;50.852;4.438;2023-06-10T12:58:38;4.57;;;4.18;;
10769;SDS011;5437;50.852;4.438;2023-06-10T13:01:04;4.88;;;4.47;;
10769;SDS011;5437;50.852;4.438;2023-06-10T13:03:31;4.50;;;4.10;;
10769;SDS011;5437;50.852;4.438;2023-06-10T13:05:57;4.65;;;4.25;;
10769;SDS011;5437;50.852;4.438;2023-06-10T13:08:23;4.80;;;4.38;;
10769;SDS011;5437;50.852;4.438;2023-06-10T13:10:49;4.65;;;4.25;;
10769;SDS011;5437;50.852;4.438;2023-06-10T13:13:15;4.57;;;4.20;;
10769;SDS011;5437;50.852;4.438;2023-06-10T13:15:42;4.20;;;3.90;;
10769;SDS011;5437;50.852;4.438;2023-06-10T13:18:08;4.95;;;4.20;;
10769;SDS011;5437;50.852;4.438;2023-06-10T13:20:34;4.82;;;4.43;;
10769;SDS011;5437;50.852;4.438;2023-06-10T13:23:01;4.53;;;4.13;;
10769;SDS011;5437;50.852;4.438;2023-06-10T13:25:27;4.30;;;4.00;;
10769;SDS011;5437;50.852;4.438;2023-06-10T13:27:53;4.20;;;3.90;;
10769;SDS011;5437;50.852;4.438;2023-06-10T13:30:19;4.80;;;4.40;;
10769;SDS011;5437;50.852;4.438;2023-06-10T13:32:45;4.45;;;3.85;;
10769;SDS011;5437;50.852;4.438;2023-06-10T13:35:11;5.32;;;4.43;;
10769;SDS011;5437;50.852;4.438;2023-06-10T13:37:37;4.70;;;4.30;;
10769;SDS011;5437;50.852;4.438;2023-06-10T13:40:04;4.43;;;4.03;;
10769;SDS011;5437;50.852;4.438;2023-06-10T13:42:30;4.90;;;4.40;;
10769;SDS011;5437;50.852;4.438;2023-06-10T13:44:57;4.75;;;4.25;;
10769;SDS011;5437;50.852;4.438;2023-06-10T13:47:23;4.68;;;4.38;;
10769;SDS011;5437;50.852;4.438;2023-06-10T13:49:50;4.97;;;4.57;;
10769;SDS011;5437;50.852;4.438;2023-06-10T13:52:16;5.00;;;4.60;;
10769;SDS011;5437;50.852;4.438;2023-06-10T13:54:42;5.18;;;4.68;;
10769;SDS011;5437;50.852;4.438;2023-06-10T13:57:08;4.35;;;4.05;;
10769;SDS011;5437;50.852;4.438;2023-06-10T13:59:35;4.70;;;4.28;;
10769;SDS011;5437;50.852;4.438;2023-06-10T14:02:01;4.68;;;4.28;;
10769;SDS011;5437;50.852;4.438;2023-06-10T14:04:27;4.90;;;4.40;;
10769;SDS011;5437;50.852;4.438;2023-06-10T14:06:53;5.05;;;4.65;;
10769;SDS011;5437;50.852;4.438;2023-06-10T14:09:20;5.60;;;4.35;;
10769;SDS011;5437;50.852;4.438;2023-06-10T14:11:46;4.82;;;4.28;;
10769;SDS011;5437;50.852;4.438;2023-06-10T14:14:13;4.75;;;4.35;;
10769;SDS011;5437;50.852;4.438;2023-06-10T14:16:39;4.68;;;4.30;;
10769;SDS011;5437;50.852;4.438;2023-06-10T14:19:05;4.60;;;4.20;;
10769;SDS011;5437;50.852;4.438;2023-06-10T14:21:31;5.85;;;4.32;;
10769;SDS011;5437;50.852;4.438;2023-06-10T14:23:57;5.20;;;4.80;;
10769;SDS011;5437;50.852;4.438;2023-06-10T14:26:24;5.10;;;4.70;;
10769;SDS011;5437;50.852;4.438;2023-06-10T14:28:51;5.32;;;4.82;;
10769;SDS011;5437;50.852;4.438;2023-06-10T14:31:17;4.78;;;4.38;;
10769;SDS011;5437;50.852;4.438;2023-06-10T14:33:43;4.72;;;4.32;;
10769;SDS011;5437;50.852;4.438;2023-06-10T14:36:09;4.78;;;4.38;;
10769;SDS011;5437;50.852;4.438;2023-06-10T14:38:35;5.22;;;4.72;;
10769;SDS011;5437;50.852;4.438;2023-06-10T14:41:02;4.78;;;4.32;;
10769;SDS011;5437;50.852;4.438;2023-06-10T14:43:28;4.57;;;4.18;;
10769;SDS011;5437;50.852;4.438;2023-06-10T14:45:54;5.07;;;4.65;;
10769;SDS011;5437;50.852;4.438;2023-06-10T14:48:21;5.03;;;4.57;;
10769;SDS011;5437;50.852;4.438;2023-06-10T14:50:47;4.30;;;3.97;;
10769;SDS011;5437;50.852;4.438;2023-06-10T14:53:16;4.90;;;4.50;;
10769;SDS011;5437;50.852;4.438;2023-06-10T14:55:42;4.65;;;4.25;;
10769;SDS011;5437;50.852;4.438;2023-06-10T14:58:08;4.88;;;4.47;;
10769;SDS011;5437;50.852;4.438;2023-06-10T15:00:34;4.93;;;4.53;;
10769;SDS011;5437;50.852;4.438;2023-06-10T15:03:00;4.57;;;4.18;;
10769;SDS011;5437;50.852;4.438;2023-06-10T15:05:27;5.10;;;4.60;;
10769;SDS011;5437;50.852;4.438;2023-06-10T15:07:53;4.93;;;4.53;;
10769;SDS011;5437;50.852;4.438;2023-06-10T15:10:20;4.05;;;3.75;;
10769;SDS011;5437;50.852;4.438;2023-06-10T15:12:47;4.45;;;4.00;;
10769;SDS011;5437;50.852;4.438;2023-06-10T15:15:20;5.13;;;4.65;;
10769;SDS011;5437;50.852;4.438;2023-06-10T15:17:46;5.10;;;4.65;;
10769;SDS011;5437;50.852;4.438;2023-06-10T15:20:12;4.50;;;4.10;;
10769;SDS011;5437;50.852;4.438;2023-06-10T15:22:38;4.70;;;4.25;;
10769;SDS011;5437;50.852;4.438;2023-06-10T15:25:04;5.28;;;4.78;;
10769;SDS011;5437;50.852;4.438;2023-06-10T15:27:31;5.25;;;4.80;;
10769;SDS011;5437;50.852;4.438;2023-06-10T15:29:57;4.97;;;4.50;;
10769;SDS011;5437;50.852;4.438;2023-06-10T15:32:23;4.68;;;4.25;;
10769;SDS011;5437;50.852;4.438;2023-06-10T15:34:49;4.20;;;3.90;;
10769;SDS011;5437;50.852;4.438;2023-06-10T15:37:17;4.72;;;4.32;;
10769;SDS011;5437;50.852;4.438;2023-06-10T15:39:44;4.65;;;4.25;;
10769;SDS011;5437;50.852;4.438;2023-06-10T15:42:10;4.53;;;4.18;;
10769;SDS011;5437;50.852;4.438;2023-06-10T15:44:36;4.75;;;4.35;;
10769;SDS011;5437;50.852;4.438;2023-06-10T15:47:02;4.60;;;4.20;;
10769;SDS011;5437;50.852;4.438;2023-06-10T15:49:28;4.40;;;4.05;;
10769;SDS011;5437;50.852;4.438;2023-06-10T15:51:54;4.78;;;4.38;;
10769;SDS011;5437;50.852;4.438;2023-06-10T15:54:20;4.97;;;4.57;;
10769;SDS011;5437;50.852;4.438;2023-06-10T15:56:46;4.70;;;4.30;;
10769;SDS011;5437;50.852;4.438;2023-06-10T15:59:12;4.80;;;4.40;;
10769;SDS011;5437;50.852;4.438;2023-06-10T16:01:38;4.82;;;4.43;;
10769;SDS011;5437;50.852;4.438;2023-06-10T16:04:04;4.55;;;4.15;;
10769;SDS011;5437;50.852;4.438;2023-06-10T16:06:32;4.60;;;4.20;;
10769;SDS011;5437;50.852;4.438;2023-06-10T16:08:59;4.72;;;4.32;;
10769;SDS011;5437;50.852;4.438;2023-06-10T16:11:25;4.47;;;4.10;;
10769;SDS011;5437;50.852;4.438;2023-06-10T16:13:52;4.53;;;4.13;;
10769;SDS011;5437;50.852;4.438;2023-06-10T16:16:18;4.95;;;4.30;;